CRG3 weather

Bouthillier Airport
Carignan, Quebec, Canada

Public forecast

Using degrees Celsius for public forecast. Weather courtesy of forecast.io.

Closest aviation weather report (METAR) to Bouthillier Airport

Closest report is MontrĂ©al / Saint-Hubert Airport, 5.4 nm (10.0 km) WNW. Retrieved 2020/08/06 09:00 UTC (9 minutes ago):

CYHU 060900Z AUTO 25011KT 9SM CLR 16/12 A3001 RMK SLP164 DENSITY ALT 100FT

Closest aviation forecast (TAF) to Bouthillier Airport

Closest forecast is MontrĂ©al / Saint-Hubert Airport, 5.4 nm (10.0 km) WNW. Retrieved 2020/08/06 06:42 UTC (2 hours ago):

TAF CYHU 060538Z 0606/0706 24010KT P6SM SKC FM061400 24015KT P6SM SCT050 FM070000 22006KT P6SM FEW050 RMK FCST BASED ON AUTO OBS NXT FCST BY 061200Z